16NC weather

Lee's Airport
Edenton, North Carolina, United States

Public forecast

Using degrees Fahrenheit for public forecast. Weather courtesy of forecast.io.

METAR (pilot weather report)

Closest report is Northeastern Regional Airport, 11.2 nm (20.7 km) SSE. Retrieved 2019/04/23 19:40 UTC (14 minutes ago):

KEDE 231940Z AUTO 23005KT 10SM CLR 27/10 A2999 RMK AO2 T02660104

TAF (pilot weather forecast)

Closest forecast is Elizabeth City Regional Airport & Coast Guard Air Station, 24.1 nm (44.6 km) E. Retrieved 2019/04/23 18:33 UTC (1 hour ago):

TAF KECG 231729Z 2318/2418 23006KT P6SM SKC FM232300 18009KT P6SM SKC FM241400 27008KT P6SM SKC